Pamlico — WX6900 — position and weather

sailwx.info

Track history (hours):
 
Tides and Currents Weather Stations Pressure Air Temp Water Temp Dewpoint Dewpoint Depression Visibility Wind Speed Wind Dir Waves Ship Positions

Pamlico

Owner: PCS Phosphate, AURORA, NC. More information available from US FCC via Universal Licensing System and Coast Guard Vessel Documentation Center.

Last reported at 2015-May-30 04:32 UTC. Time now 2015-May-30 22:38 UTC.
Position N 34°58' W 076°42'.

Length 30 m; draft 3 m.

MMSI: 367361220.

Date/timePositionNaut miles runAvg speedWind from/ knotsBaromVisibWave heightAir tempDewpointWater temp
2015-May-30 04:32N 34°58' W 076°42'5 5.6
2015-May-30 03:33N 34°53' W 076°41'7 6.5
2015-May-30 02:33N 34°47' W 076°41'3 3.2
2015-May-30 01:33N 34°43' W 076°42'0 0.0
2015-May-30 00:33N 34°43' W 076°42'3 3.0
2015-May-29 23:33N 34°46' W 076°41'5 5.0
2015-May-29 22:33N 34°51' W 076°41'5 4.6
2015-May-29 21:33N 34°55' W 076°39'  
2015-May-23 11:29N 35°04' W 076°33'6 6.4
2015-May-23 10:33N 35°10' W 076°32'14 0.6
2015-May-22 11:32N 34°59' W 076°42'5 5.4
2015-May-22 10:33N 34°53' W 076°41'5 5.3
2015-May-22 09:33N 34°48' W 076°41'5 4.8
2015-May-22 08:33N 34°43' W 076°42'0 0.1
2015-May-22 07:33N 34°43' W 076°42'0 0.1
2015-May-22 06:33N 34°43' W 076°42'6 5.7
2015-May-22 05:33N 34°49' W 076°41'4 4.3
2015-May-22 04:33N 34°53' W 076°41'5 4.5
2015-May-22 03:33N 34°58' W 076°41'12 0.5
2015-May-21 01:18N 35°07' W 076°31'7 6.7
2015-May-21 00:14N 35°02' W 076°37'5 6.7
2015-May-20 23:33N 34°59' W 076°41'5 4.9
2015-May-20 22:33N 34°54' W 076°41'4 3.9
2015-May-20 21:33N 34°50' W 076°41'4 4.1
2015-May-20 20:33N 34°46' W 076°41'3 2.9
2015-May-20 19:33N 34°43' W 076°42'0 0.1
2015-May-20 18:33N 34°43' W 076°42'3 2.6
2015-May-20 17:33N 34°46' W 076°41'6 5.7
2015-May-20 16:33N 34°51' W 076°41'5 5.1
2015-May-20 15:33N 34°56' W 076°39'11 1.0
2015-May-20 04:33N 35°05' W 076°32'  
Track history (hours):
 
Tides and Currents Weather Stations Pressure Air Temp Water Temp Dewpoint Dewpoint Depression Visibility Wind Speed Wind Dir Waves Ship Positions

Pamlico

Owner: PCS Phosphate, AURORA, NC. More information available from US FCC via Universal Licensing System and Coast Guard Vessel Documentation Center.

Last reported at 2015-May-30 04:32 UTC. Time now 2015-May-30 22:38 UTC.
Position N 34°58' W 076°42'.

Length 30 m; draft 3 m.

MMSI: 367361220.

Date/timePositionNaut miles runAvg speedWind from/ knotsBaromVisibWave heightAir tempDewpointWater temp
2015-May-30 04:32N 34°58' W 076°42'5 5.6
2015-May-30 03:33N 34°53' W 076°41'7 6.5
2015-May-30 02:33N 34°47' W 076°41'3 3.2
2015-May-30 01:33N 34°43' W 076°42'0 0.0
2015-May-30 00:33N 34°43' W 076°42'3 3.0
2015-May-29 23:33N 34°46' W 076°41'5 5.0
2015-May-29 22:33N 34°51' W 076°41'5 4.6
2015-May-29 21:33N 34°55' W 076°39'  
2015-May-23 11:29N 35°04' W 076°33'6 6.4
2015-May-23 10:33N 35°10' W 076°32'14 0.6
2015-May-22 11:32N 34°59' W 076°42'5 5.4
2015-May-22 10:33N 34°53' W 076°41'5 5.3
2015-May-22 09:33N 34°48' W 076°41'5 4.8
2015-May-22 08:33N 34°43' W 076°42'0 0.1
2015-May-22 07:33N 34°43' W 076°42'0 0.1
2015-May-22 06:33N 34°43' W 076°42'6 5.7
2015-May-22 05:33N 34°49' W 076°41'4 4.3
2015-May-22 04:33N 34°53' W 076°41'5 4.5
2015-May-22 03:33N 34°58' W 076°41'12 0.5
2015-May-21 01:18N 35°07' W 076°31'7 6.7
2015-May-21 00:14N 35°02' W 076°37'5 6.7
2015-May-20 23:33N 34°59' W 076°41'5 4.9
2015-May-20 22:33N 34°54' W 076°41'4 3.9
2015-May-20 21:33N 34°50' W 076°41'4 4.1
2015-May-20 20:33N 34°46' W 076°41'3 2.9
2015-May-20 19:33N 34°43' W 076°42'0 0.1
2015-May-20 18:33N 34°43' W 076°42'3 2.6
2015-May-20 17:33N 34°46' W 076°41'6 5.7
2015-May-20 16:33N 34°51' W 076°41'5 5.1
2015-May-20 15:33N 34°56' W 076°39'11 1.0
2015-May-20 04:33N 35°05' W 076°32'  

Dump ship's entire track history